sensor_id;sensor_type;location;lat;lon;timestamp;temperature;humidity
33863;DHT22;20158;51.436;-2.742;2023-04-03T00:01:16;8.80;53.20
33863;DHT22;20158;51.436;-2.742;2023-04-03T00:03:42;8.80;52.70
33863;DHT22;20158;51.436;-2.742;2023-04-03T00:06:09;8.80;52.70
33863;DHT22;20158;51.436;-2.742;2023-04-03T00:08:37;8.80;52.70
33863;DHT22;20158;51.436;-2.742;2023-04-03T00:11:04;8.70;52.50
33863;DHT22;20158;51.436;-2.742;2023-04-03T00:13:31;8.70;52.50
33863;DHT22;20158;51.436;-2.742;2023-04-03T00:15:57;8.70;52.60
33863;DHT22;20158;51.436;-2.742;2023-04-03T00:18:23;8.70;52.70
33863;DHT22;20158;51.436;-2.742;2023-04-03T00:20:49;8.60;52.50
33863;DHT22;20158;51.436;-2.742;2023-04-03T00:23:15;8.60;52.50
33863;DHT22;20158;51.436;-2.742;2023-04-03T00:25:42;8.60;52.60
33863;DHT22;20158;51.436;-2.742;2023-04-03T00:28:08;8.50;52.50
33863;DHT22;20158;51.436;-2.742;2023-04-03T00:30:35;8.50;52.60
33863;DHT22;20158;51.436;-2.742;2023-04-03T00:33:01;8.50;52.60
33863;DHT22;20158;51.436;-2.742;2023-04-03T00:35:28;8.40;52.40
33863;DHT22;20158;51.436;-2.742;2023-04-03T00:37:55;8.40;52.50
33863;DHT22;20158;51.436;-2.742;2023-04-03T00:40:24;8.40;52.60
33863;DHT22;20158;51.436;-2.742;2023-04-03T00:42:56;8.40;52.60
33863;DHT22;20158;51.436;-2.742;2023-04-03T00:47:57;8.40;52.70
33863;DHT22;20158;51.436;-2.742;2023-04-03T00:50:27;8.30;52.50
33863;DHT22;20158;51.436;-2.742;2023-04-03T00:52:54;8.30;52.60
33863;DHT22;20158;51.436;-2.742;2023-04-03T00:55:21;8.30;52.60
33863;DHT22;20158;51.436;-2.742;2023-04-03T00:57:48;8.30;52.60
33863;DHT22;20158;51.436;-2.742;2023-04-03T01:00:17;8.20;52.50
33863;DHT22;20158;51.436;-2.742;2023-04-03T01:02:45;8.20;52.50
33863;DHT22;20158;51.436;-2.742;2023-04-03T01:05:16;8.20;52.50
33863;DHT22;20158;51.436;-2.742;2023-04-03T01:07:43;8.20;52.60
33863;DHT22;20158;51.436;-2.742;2023-04-03T01:10:12;8.20;52.60
33863;DHT22;20158;51.436;-2.742;2023-04-03T01:12:42;8.10;52.40
33863;DHT22;20158;51.436;-2.742;2023-04-03T01:15:16;8.10;52.50
33863;DHT22;20158;51.436;-2.742;2023-04-03T01:17:53;8.10;52.50
33863;DHT22;20158;51.436;-2.742;2023-04-03T01:20:35;8.10;52.60
33863;DHT22;20158;51.436;-2.742;2023-04-03T01:25:51;8.00;52.40
33863;DHT22;20158;51.436;-2.742;2023-04-03T01:28:20;8.00;52.50
33863;DHT22;20158;51.436;-2.742;2023-04-03T01:30:51;8.00;52.50
33863;DHT22;20158;51.436;-2.742;2023-04-03T01:33:20;7.90;52.40
33863;DHT22;20158;51.436;-2.742;2023-04-03T01:35:47;8.00;52.60
33863;DHT22;20158;51.436;-2.742;2023-04-03T01:38:13;7.90;52.40
33863;DHT22;20158;51.436;-2.742;2023-04-03T01:40:39;7.90;52.40
33863;DHT22;20158;51.436;-2.742;2023-04-03T01:43:05;7.90;52.40
33863;DHT22;20158;51.436;-2.742;2023-04-03T01:45:31;7.90;52.50
33863;DHT22;20158;51.436;-2.742;2023-04-03T01:47:57;7.90;52.50
33863;DHT22;20158;51.436;-2.742;2023-04-03T01:50:24;7.90;52.50
33863;DHT22;20158;51.436;-2.742;2023-04-03T01:52:51;7.90;52.50
33863;DHT22;20158;51.436;-2.742;2023-04-03T01:55:17;7.80;52.40
33863;DHT22;20158;51.436;-2.742;2023-04-03T01:57:43;7.80;52.40
33863;DHT22;20158;51.436;-2.742;2023-04-03T02:00:09;7.80;52.40
33863;DHT22;20158;51.436;-2.742;2023-04-03T02:02:41;7.80;52.40
33863;DHT22;20158;51.436;-2.742;2023-04-03T02:05:08;7.70;52.20
33863;DHT22;20158;51.436;-2.742;2023-04-03T02:07:34;7.70;52.20
33863;DHT22;20158;51.436;-2.742;2023-04-03T02:10:00;7.70;52.30
33863;DHT22;20158;51.436;-2.742;2023-04-03T02:12:28;7.70;52.30
33863;DHT22;20158;51.436;-2.742;2023-04-03T02:14:53;7.70;52.30
33863;DHT22;20158;51.436;-2.742;2023-04-03T02:17:19;7.70;53.00
33863;DHT22;20158;51.436;-2.742;2023-04-03T02:19:45;7.60;52.20
33863;DHT22;20158;51.436;-2.742;2023-04-03T02:22:11;7.60;52.20
33863;DHT22;20158;51.436;-2.742;2023-04-03T02:24:37;7.60;52.30
33863;DHT22;20158;51.436;-2.742;2023-04-03T02:27:04;7.60;52.30
33863;DHT22;20158;51.436;-2.742;2023-04-03T02:29:30;7.50;52.20
33863;DHT22;20158;51.436;-2.742;2023-04-03T02:31:56;7.50;52.20
33863;DHT22;20158;51.436;-2.742;2023-04-03T02:34:23;7.50;52.20
33863;DHT22;20158;51.436;-2.742;2023-04-03T02:36:50;7.40;52.10
33863;DHT22;20158;51.436;-2.742;2023-04-03T02:39:17;7.30;52.00
33863;DHT22;20158;51.436;-2.742;2023-04-03T02:41:44;7.30;52.10
33863;DHT22;20158;51.436;-2.742;2023-04-03T02:44:17;7.30;52.10
33863;DHT22;20158;51.436;-2.742;2023-04-03T02:46:44;7.30;52.20
33863;DHT22;20158;51.436;-2.742;2023-04-03T02:49:10;7.20;52.10
33863;DHT22;20158;51.436;-2.742;2023-04-03T02:51:36;7.20;52.10
33863;DHT22;20158;51.436;-2.742;2023-04-03T02:54:02;7.20;52.10
33863;DHT22;20158;51.436;-2.742;2023-04-03T02:56:32;7.10;52.00
33863;DHT22;20158;51.436;-2.742;2023-04-03T02:58:58;7.10;52.00
33863;DHT22;20158;51.436;-2.742;2023-04-03T03:01:25;7.10;52.10
33863;DHT22;20158;51.436;-2.742;2023-04-03T03:03:54;7.00;52.00
33863;DHT22;20158;51.436;-2.742;2023-04-03T03:06:20;7.00;52.00
33863;DHT22;20158;51.436;-2.742;2023-04-03T03:08:46;7.00;52.00
33863;DHT22;20158;51.436;-2.742;2023-04-03T03:11:12;7.00;52.10
33863;DHT22;20158;51.436;-2.742;2023-04-03T03:13:38;6.90;51.90
33863;DHT22;20158;51.436;-2.742;2023-04-03T03:16:05;6.90;51.90
33863;DHT22;20158;51.436;-2.742;2023-04-03T03:18:31;6.90;52.00
33863;DHT22;20158;51.436;-2.742;2023-04-03T03:20:59;6.80;51.80
33863;DHT22;20158;51.436;-2.742;2023-04-03T03:23:26;6.80;51.90
33863;DHT22;20158;51.436;-2.742;2023-04-03T03:25:59;6.80;52.00
33863;DHT22;20158;51.436;-2.742;2023-04-03T03:28:26;6.70;51.90
33863;DHT22;20158;51.436;-2.742;2023-04-03T03:30:52;6.70;51.90
33863;DHT22;20158;51.436;-2.742;2023-04-03T03:33:19;6.60;51.80
33863;DHT22;20158;51.436;-2.742;2023-04-03T03:35:45;6.60;51.90
33863;DHT22;20158;51.436;-2.742;2023-04-03T03:38:11;6.60;51.90
33863;DHT22;20158;51.436;-2.742;2023-04-03T03:40:38;6.50;51.80
33863;DHT22;20158;51.436;-2.742;2023-04-03T03:43:04;6.50;51.90
33863;DHT22;20158;51.436;-2.742;2023-04-03T03:45:31;6.50;51.90
33863;DHT22;20158;51.436;-2.742;2023-04-03T03:47:57;6.50;51.90
33863;DHT22;20158;51.436;-2.742;2023-04-03T03:50:23;6.50;52.00
33863;DHT22;20158;51.436;-2.742;2023-04-03T03:52:50;6.50;52.10
33863;DHT22;20158;51.436;-2.742;2023-04-03T03:55:17;6.40;51.90
33863;DHT22;20158;51.436;-2.742;2023-04-03T03:57:44;6.50;52.10
33863;DHT22;20158;51.436;-2.742;2023-04-03T04:00:10;6.40;51.90
33863;DHT22;20158;51.436;-2.742;2023-04-03T04:02:49;6.40;51.90
33863;DHT22;20158;51.436;-2.742;2023-04-03T04:05:18;6.40;51.90
33863;DHT22;20158;51.436;-2.742;2023-04-03T04:07:45;6.30;51.80
33863;DHT22;20158;51.436;-2.742;2023-04-03T04:10:11;6.30;51.90
33863;DHT22;20158;51.436;-2.742;2023-04-03T04:12:40;6.30;51.90
33863;DHT22;20158;51.436;-2.742;2023-04-03T04:15:06;6.30;52.50
33863;DHT22;20158;51.436;-2.742;2023-04-03T04:17:33;6.20;51.80
33863;DHT22;20158;51.436;-2.742;2023-04-03T04:20:03;6.20;51.90
33863;DHT22;20158;51.436;-2.742;2023-04-03T04:22:30;6.20;51.90
33863;DHT22;20158;51.436;-2.742;2023-04-03T04:24:56;6.20;52.00
33863;DHT22;20158;51.436;-2.742;2023-04-03T04:27:22;6.10;51.80
33863;DHT22;20158;51.436;-2.742;2023-04-03T04:29:48;6.10;51.90
33863;DHT22;20158;51.436;-2.742;2023-04-03T04:32:15;6.10;52.00
33863;DHT22;20158;51.436;-2.742;2023-04-03T04:34:42;6.10;52.00
33863;DHT22;20158;51.436;-2.742;2023-04-03T04:37:08;6.10;52.10
33863;DHT22;20158;51.436;-2.742;2023-04-03T04:39:34;6.00;51.90
33863;DHT22;20158;51.436;-2.742;2023-04-03T04:42:01;6.00;52.00
33863;DHT22;20158;51.436;-2.742;2023-04-03T04:44:30;6.00;52.00
33863;DHT22;20158;51.436;-2.742;2023-04-03T04:46:56;6.00;52.00
33863;DHT22;20158;51.436;-2.742;2023-04-03T04:49:22;6.00;52.10
33863;DHT22;20158;51.436;-2.742;2023-04-03T04:51:48;6.00;52.00
33863;DHT22;20158;51.436;-2.742;2023-04-03T04:54:17;6.00;52.00
33863;DHT22;20158;51.436;-2.742;2023-04-03T04:56:45;6.00;52.00
33863;DHT22;20158;51.436;-2.742;2023-04-03T04:59:12;6.00;52.10
33863;DHT22;20158;51.436;-2.742;2023-04-03T05:01:38;6.00;52.10
33863;DHT22;20158;51.436;-2.742;2023-04-03T05:04:08;6.00;52.20
33863;DHT22;20158;51.436;-2.742;2023-04-03T05:06:36;5.90;52.10
33863;DHT22;20158;51.436;-2.742;2023-04-03T05:09:05;5.90;52.10
33863;DHT22;20158;51.436;-2.742;2023-04-03T05:11:32;5.90;52.10
33863;DHT22;20158;51.436;-2.742;2023-04-03T05:13:58;5.90;52.10
33863;DHT22;20158;51.436;-2.742;2023-04-03T05:16:25;5.90;52.20
33863;DHT22;20158;51.436;-2.742;2023-04-03T05:18:53;5.90;52.20
33863;DHT22;20158;51.436;-2.742;2023-04-03T05:21:21;5.90;52.30
33863;DHT22;20158;51.436;-2.742;2023-04-03T05:23:50;5.80;52.10
33863;DHT22;20158;51.436;-2.742;2023-04-03T05:26:17;5.80;52.10
33863;DHT22;20158;51.436;-2.742;2023-04-03T05:28:45;5.80;52.20
33863;DHT22;20158;51.436;-2.742;2023-04-03T05:31:13;5.80;52.20
33863;DHT22;20158;51.436;-2.742;2023-04-03T05:33:39;5.80;52.30
33863;DHT22;20158;51.436;-2.742;2023-04-03T05:36:08;5.70;52.10
33863;DHT22;20158;51.436;-2.742;2023-04-03T05:38:39;5.70;52.20
33863;DHT22;20158;51.436;-2.742;2023-04-03T05:41:05;5.70;52.20
33863;DHT22;20158;51.436;-2.742;2023-04-03T05:43:32;5.70;52.20
33863;DHT22;20158;51.436;-2.742;2023-04-03T05:46:01;5.60;52.10
33863;DHT22;20158;51.436;-2.742;2023-04-03T05:48:28;5.60;52.10
33863;DHT22;20158;51.436;-2.742;2023-04-03T05:50:54;5.60;52.10
33863;DHT22;20158;51.436;-2.742;2023-04-03T05:53:28;5.60;52.10
33863;DHT22;20158;51.436;-2.742;2023-04-03T05:55:57;5.60;52.10
33863;DHT22;20158;51.436;-2.742;2023-04-03T05:58:24;5.60;52.10
33863;DHT22;20158;51.436;-2.742;2023-04-03T06:00:52;5.60;52.10
33863;DHT22;20158;51.436;-2.742;2023-04-03T06:03:18;5.60;52.00
33863;DHT22;20158;51.436;-2.742;2023-04-03T06:05:44;5.60;52.10
33863;DHT22;20158;51.436;-2.742;2023-04-03T06:08:12;5.60;52.40
33863;DHT22;20158;51.436;-2.742;2023-04-03T06:10:38;5.60;52.50
33863;DHT22;20158;51.436;-2.742;2023-04-03T06:13:05;5.70;52.70
33863;DHT22;20158;51.436;-2.742;2023-04-03T06:15:31;5.70;52.60
33863;DHT22;20158;51.436;-2.742;2023-04-03T06:17:57;5.70;52.60
33863;DHT22;20158;51.436;-2.742;2023-04-03T06:20:23;5.80;52.80
33863;DHT22;20158;51.436;-2.742;2023-04-03T06:22:50;5.80;52.80
33863;DHT22;20158;51.436;-2.742;2023-04-03T06:25:16;5.90;53.00
33863;DHT22;20158;51.436;-2.742;2023-04-03T06:27:45;6.00;53.00
33863;DHT22;20158;51.436;-2.742;2023-04-03T06:30:11;6.10;53.20
33863;DHT22;20158;51.436;-2.742;2023-04-03T06:32:38;6.30;53.80
33863;DHT22;20158;51.436;-2.742;2023-04-03T06:35:05;6.50;54.30
33863;DHT22;20158;51.436;-2.742;2023-04-03T06:37:31;6.90;55.40
33863;DHT22;20158;51.436;-2.742;2023-04-03T06:39:58;7.50;56.70
33863;DHT22;20158;51.436;-2.742;2023-04-03T06:42:25;8.10;57.40
33863;DHT22;20158;51.436;-2.742;2023-04-03T06:45:00;8.80;58.00
33863;DHT22;20158;51.436;-2.742;2023-04-03T06:47:26;9.50;58.30
33863;DHT22;20158;51.436;-2.742;2023-04-03T06:49:53;10.20;58.70
33863;DHT22;20158;51.436;-2.742;2023-04-03T06:52:18;10.80;58.90
33863;DHT22;20158;51.436;-2.742;2023-04-03T06:54:44;11.40;59.10
33863;DHT22;20158;51.436;-2.742;2023-04-03T06:57:10;11.90;59.10
33863;DHT22;20158;51.436;-2.742;2023-04-03T06:59:36;12.40;59.10
33863;DHT22;20158;51.436;-2.742;2023-04-03T07:02:03;12.90;59.20
33863;DHT22;20158;51.436;-2.742;2023-04-03T07:04:29;13.20;59.00
33863;DHT22;20158;51.436;-2.742;2023-04-03T07:06:55;13.40;58.80
33863;DHT22;20158;51.436;-2.742;2023-04-03T07:09:21;13.60;58.70
33863;DHT22;20158;51.436;-2.742;2023-04-03T07:11:47;13.80;58.70
33863;DHT22;20158;51.436;-2.742;2023-04-03T07:14:13;13.90;58.50
33863;DHT22;20158;51.436;-2.742;2023-04-03T07:16:39;14.00;58.50
33863;DHT22;20158;51.436;-2.742;2023-04-03T07:19:05;14.10;58.50
33863;DHT22;20158;51.436;-2.742;2023-04-03T07:21:31;14.10;58.30
33863;DHT22;20158;51.436;-2.742;2023-04-03T07:23:57;14.10;58.20
33863;DHT22;20158;51.436;-2.742;2023-04-03T07:26:23;14.20;58.30
33863;DHT22;20158;51.436;-2.742;2023-04-03T07:28:49;14.20;58.20
33863;DHT22;20158;51.436;-2.742;2023-04-03T07:31:16;14.30;58.30
33863;DHT22;20158;51.436;-2.742;2023-04-03T07:33:43;14.20;57.80
33863;DHT22;20158;51.436;-2.742;2023-04-03T07:36:15;14.10;57.30
33863;DHT22;20158;51.436;-2.742;2023-04-03T07:38:42;14.00;57.00
33863;DHT22;20158;51.436;-2.742;2023-04-03T07:41:12;13.80;56.70
33863;DHT22;20158;51.436;-2.742;2023-04-03T07:43:39;13.60;56.50
33863;DHT22;20158;51.436;-2.742;2023-04-03T07:46:06;13.40;56.40
33863;DHT22;20158;51.436;-2.742;2023-04-03T07:48:32;13.20;56.30
33863;DHT22;20158;51.436;-2.742;2023-04-03T07:51:03;13.10;56.40
33863;DHT22;20158;51.436;-2.742;2023-04-03T07:53:30;13.10;56.60
33863;DHT22;20158;51.436;-2.742;2023-04-03T07:55:57;13.10;56.60
33863;DHT22;20158;51.436;-2.742;2023-04-03T07:58:23;13.10;56.40
33863;DHT22;20158;51.436;-2.742;2023-04-03T08:00:50;13.10;56.10
33863;DHT22;20158;51.436;-2.742;2023-04-03T08:03:16;13.10;55.90
33863;DHT22;20158;51.436;-2.742;2023-04-03T08:05:44;13.10;55.80
33863;DHT22;20158;51.436;-2.742;2023-04-03T08:08:12;13.00;56.10
33863;DHT22;20158;51.436;-2.742;2023-04-03T08:10:39;12.90;55.40
33863;DHT22;20158;51.436;-2.742;2023-04-03T08:13:06;12.80;55.30
33863;DHT22;20158;51.436;-2.742;2023-04-03T08:15:33;12.70;55.10
33863;DHT22;20158;51.436;-2.742;2023-04-03T08:18:00;12.60;55.00
33863;DHT22;20158;51.436;-2.742;2023-04-03T08:20:27;12.60;55.10
33863;DHT22;20158;51.436;-2.742;2023-04-03T08:22:53;12.50;55.10
33863;DHT22;20158;51.436;-2.742;2023-04-03T08:25:19;12.40;55.10
33863;DHT22;20158;51.436;-2.742;2023-04-03T08:27:45;12.30;55.00
33863;DHT22;20158;51.436;-2.742;2023-04-03T08:30:12;12.30;55.10
33863;DHT22;20158;51.436;-2.742;2023-04-03T08:32:38;12.30;55.20
33863;DHT22;20158;51.436;-2.742;2023-04-03T08:35:04;12.20;55.10
33863;DHT22;20158;51.436;-2.742;2023-04-03T08:37:30;12.20;55.10
33863;DHT22;20158;51.436;-2.742;2023-04-03T08:39:57;12.10;55.00
33863;DHT22;20158;51.436;-2.742;2023-04-03T08:48:20;12.10;55.20
33863;DHT22;20158;51.436;-2.742;2023-04-03T08:50:51;12.10;55.30
33863;DHT22;20158;51.436;-2.742;2023-04-03T08:53:21;12.00;55.20
33863;DHT22;20158;51.436;-2.742;2023-04-03T08:55:53;12.00;55.20
33863;DHT22;20158;51.436;-2.742;2023-04-03T08:58:30;12.00;55.30
33863;DHT22;20158;51.436;-2.742;2023-04-03T09:01:03;12.00;55.40
33863;DHT22;20158;51.436;-2.742;2023-04-03T09:03:32;12.00;55.50
33863;DHT22;20158;51.436;-2.742;2023-04-03T09:06:10;12.00;55.60
33863;DHT22;20158;51.436;-2.742;2023-04-03T09:11:35;12.10;55.80
33863;DHT22;20158;51.436;-2.742;2023-04-03T09:19:44;12.10;55.80
33863;DHT22;20158;51.436;-2.742;2023-04-03T09:22:17;12.20;56.10
33863;DHT22;20158;51.436;-2.742;2023-04-03T09:24:48;12.20;56.10
33863;DHT22;20158;51.436;-2.742;2023-04-03T09:27:16;12.30;56.30
33863;DHT22;20158;51.436;-2.742;2023-04-03T09:29:43;12.30;56.20
33863;DHT22;20158;51.436;-2.742;2023-04-03T09:32:34;12.30;56.20
33863;DHT22;20158;51.436;-2.742;2023-04-03T09:37:40;12.30;56.20
33863;DHT22;20158;51.436;-2.742;2023-04-03T09:43:00;12.40;56.50
33863;DHT22;20158;51.436;-2.742;2023-04-03T09:45:31;12.40;56.30
33863;DHT22;20158;51.436;-2.742;2023-04-03T09:48:25;12.50;56.40
33863;DHT22;20158;51.436;-2.742;2023-04-03T09:53:42;12.50;56.20
33863;DHT22;20158;51.436;-2.742;2023-04-03T09:56:21;12.60;56.30
33863;DHT22;20158;51.436;-2.742;2023-04-03T09:58:51;12.60;56.20
33863;DHT22;20158;51.436;-2.742;2023-04-03T10:01:29;12.60;56.10
33863;DHT22;20158;51.436;-2.742;2023-04-03T10:06:36;12.70;56.20
33863;DHT22;20158;51.436;-2.742;2023-04-03T10:09:20;12.70;56.20
33863;DHT22;20158;51.436;-2.742;2023-04-03T10:12:10;12.80;56.30
33863;DHT22;20158;51.436;-2.742;2023-04-03T10:14:53;12.90;56.50
33863;DHT22;20158;51.436;-2.742;2023-04-03T10:17:30;12.90;56.40
33863;DHT22;20158;51.436;-2.742;2023-04-03T10:34:46;14.00;56.30
33863;DHT22;20158;51.436;-2.742;2023-04-03T10:37:24;14.20;56.20
33863;DHT22;20158;51.436;-2.742;2023-04-03T10:40:01;14.40;56.10
33863;DHT22;20158;51.436;-2.742;2023-04-03T10:42:42;14.60;56.70
33863;DHT22;20158;51.436;-2.742;2023-04-03T10:45:53;14.70;55.90
33863;DHT22;20158;51.436;-2.742;2023-04-03T10:48:40;14.90;55.90
33863;DHT22;20158;51.436;-2.742;2023-04-03T10:54:09;15.20;56.10
33863;DHT22;20158;51.436;-2.742;2023-04-03T10:56:47;15.40;56.30
33863;DHT22;20158;51.436;-2.742;2023-04-03T11:02:07;15.90;56.60
33863;DHT22;20158;51.436;-2.742;2023-04-03T11:04:40;16.20;56.70
33863;DHT22;20158;51.436;-2.742;2023-04-03T11:07:14;16.40;56.50
33863;DHT22;20158;51.436;-2.742;2023-04-03T11:09:44;16.60;56.20
33863;DHT22;20158;51.436;-2.742;2023-04-03T11:12:21;16.70;55.90
33863;DHT22;20158;51.436;-2.742;2023-04-03T11:14:51;16.80;55.60
33863;DHT22;20158;51.436;-2.742;2023-04-03T11:20:10;16.80;55.00
33863;DHT22;20158;51.436;-2.742;2023-04-03T11:22:42;16.80;55.20
33863;DHT22;20158;51.436;-2.742;2023-04-03T11:28:00;16.80;54.30
33863;DHT22;20158;51.436;-2.742;2023-04-03T11:36:43;16.60;53.60
33863;DHT22;20158;51.436;-2.742;2023-04-03T11:39:33;16.60;53.60
33863;DHT22;20158;51.436;-2.742;2023-04-03T11:42:29;16.60;53.60
33863;DHT22;20158;51.436;-2.742;2023-04-03T11:47:54;16.50;53.30
33863;DHT22;20158;51.436;-2.742;2023-04-03T11:58:12;16.40;53.40
33863;DHT22;20158;51.436;-2.742;2023-04-03T12:19:38;16.30;52.30
33863;DHT22;20158;51.436;-2.742;2023-04-03T12:24:29;16.30;52.40
33863;DHT22;20158;51.436;-2.742;2023-04-03T12:40:43;16.30;52.50
33863;DHT22;20158;51.436;-2.742;2023-04-03T12:46:14;16.40;52.80
33863;DHT22;20158;51.436;-2.742;2023-04-03T12:48:49;16.50;52.70
33863;DHT22;20158;51.436;-2.742;2023-04-03T12:54:03;16.60;52.60
33863;DHT22;20158;51.436;-2.742;2023-04-03T12:56:32;16.60;52.20
33863;DHT22;20158;51.436;-2.742;2023-04-03T12:59:16;16.70;52.20
33863;DHT22;20158;51.436;-2.742;2023-04-03T13:01:43;16.70;52.00
33863;DHT22;20158;51.436;-2.742;2023-04-03T13:04:13;16.80;52.20
33863;DHT22;20158;51.436;-2.742;2023-04-03T13:06:42;16.90;52.10
33863;DHT22;20158;51.436;-2.742;2023-04-03T13:12:11;17.10;52.00
33863;DHT22;20158;51.436;-2.742;2023-04-03T13:14:37;17.30;52.10
33863;DHT22;20158;51.436;-2.742;2023-04-03T13:17:10;17.50;52.20
33863;DHT22;20158;51.436;-2.742;2023-04-03T13:19:38;17.60;51.90
33863;DHT22;20158;51.436;-2.742;2023-04-03T13:24:52;18.00;51.90
33863;DHT22;20158;51.436;-2.742;2023-04-03T13:27:20;18.20;51.80
33863;DHT22;20158;51.436;-2.742;2023-04-03T13:29:50;18.30;51.60
33863;DHT22;20158;51.436;-2.742;2023-04-03T13:32:22;18.40;51.40
33863;DHT22;20158;51.436;-2.742;2023-04-03T13:34:49;18.60;51.50
33863;DHT22;20158;51.436;-2.742;2023-04-03T13:40:17;19.00;51.60
33863;DHT22;20158;51.436;-2.742;2023-04-03T13:42:42;19.20;51.50
33863;DHT22;20158;51.436;-2.742;2023-04-03T13:47:47;19.70;51.40
33863;DHT22;20158;51.436;-2.742;2023-04-03T13:50:18;19.80;52.00
33863;DHT22;20158;51.436;-2.742;2023-04-03T13:52:55;20.00;51.40
33863;DHT22;20158;51.436;-2.742;2023-04-03T13:55:29;20.30;51.60
33863;DHT22;20158;51.436;-2.742;2023-04-03T14:00:49;20.70;51.30
33863;DHT22;20158;51.436;-2.742;2023-04-03T14:03:32;21.00;51.20
33863;DHT22;20158;51.436;-2.742;2023-04-03T14:05:59;21.20;51.30
33863;DHT22;20158;51.436;-2.742;2023-04-03T14:08:27;21.40;51.30
33863;DHT22;20158;51.436;-2.742;2023-04-03T14:10:53;21.60;51.10
33863;DHT22;20158;51.436;-2.742;2023-04-03T14:13:20;21.70;50.80
33863;DHT22;20158;51.436;-2.742;2023-04-03T14:15:48;21.90;50.80
33863;DHT22;20158;51.436;-2.742;2023-04-03T14:18:16;22.00;50.50
33863;DHT22;20158;51.436;-2.742;2023-04-03T14:20:44;22.10;50.50
33863;DHT22;20158;51.436;-2.742;2023-04-03T14:23:10;22.20;50.30
33863;DHT22;20158;51.436;-2.742;2023-04-03T14:25:37;22.40;50.30
33863;DHT22;20158;51.436;-2.742;2023-04-03T14:28:17;22.50;50.00
33863;DHT22;20158;51.436;-2.742;2023-04-03T14:30:44;22.70;49.70
33863;DHT22;20158;51.436;-2.742;2023-04-03T14:33:14;22.80;49.80
33863;DHT22;20158;51.436;-2.742;2023-04-03T14:35:41;22.90;49.50
33863;DHT22;20158;51.436;-2.742;2023-04-03T14:38:25;23.00;49.50
33863;DHT22;20158;51.436;-2.742;2023-04-03T14:40:52;23.10;49.30
33863;DHT22;20158;51.436;-2.742;2023-04-03T14:43:19;23.20;49.50
33863;DHT22;20158;51.436;-2.742;2023-04-03T14:45:46;23.30;49.50
33863;DHT22;20158;51.436;-2.742;2023-04-03T14:48:22;23.40;49.50
33863;DHT22;20158;51.436;-2.742;2023-04-03T14:50:49;23.40;49.70
33863;DHT22;20158;51.436;-2.742;2023-04-03T14:53:18;23.50;49.20
33863;DHT22;20158;51.436;-2.742;2023-04-03T14:55:49;23.50;49.10
33863;DHT22;20158;51.436;-2.742;2023-04-03T14:58:17;23.50;48.90
33863;DHT22;20158;51.436;-2.742;2023-04-03T15:00:44;23.50;48.70
33863;DHT22;20158;51.436;-2.742;2023-04-03T15:03:15;23.60;48.70
33863;DHT22;20158;51.436;-2.742;2023-04-03T15:05:43;23.60;49.10
33863;DHT22;20158;51.436;-2.742;2023-04-03T15:08:21;23.70;48.80
33863;DHT22;20158;51.436;-2.742;2023-04-03T15:10:49;23.80;48.70
33863;DHT22;20158;51.436;-2.742;2023-04-03T15:13:19;23.90;49.10
33863;DHT22;20158;51.436;-2.742;2023-04-03T15:15:46;24.20;49.10
33863;DHT22;20158;51.436;-2.742;2023-04-03T15:18:21;24.50;49.20
33863;DHT22;20158;51.436;-2.742;2023-04-03T15:20:48;24.80;49.10
33863;DHT22;20158;51.436;-2.742;2023-04-03T15:23:17;25.10;49.20
33863;DHT22;20158;51.436;-2.742;2023-04-03T15:25:47;25.30;48.50
33863;DHT22;20158;51.436;-2.742;2023-04-03T15:30:51;26.80;45.70
33863;DHT22;20158;51.436;-2.742;2023-04-03T15:33:17;27.60;44.30
33863;DHT22;20158;51.436;-2.742;2023-04-03T15:35:44;28.30;43.10
33863;DHT22;20158;51.436;-2.742;2023-04-03T15:38:10;28.70;42.20
33863;DHT22;20158;51.436;-2.742;2023-04-03T15:40:36;29.00;41.70
33863;DHT22;20158;51.436;-2.742;2023-04-03T15:43:03;29.10;41.50
33863;DHT22;20158;51.436;-2.742;2023-04-03T15:45:29;28.80;41.50
33863;DHT22;20158;51.436;-2.742;2023-04-03T15:47:59;28.40;41.90
33863;DHT22;20158;51.436;-2.742;2023-04-03T15:50:25;28.00;43.20
33863;DHT22;20158;51.436;-2.742;2023-04-03T15:52:52;27.50;43.20
33863;DHT22;20158;51.436;-2.742;2023-04-03T15:55:24;27.20;43.70
33863;DHT22;20158;51.436;-2.742;2023-04-03T15:57:52;27.00;43.70
33863;DHT22;20158;51.436;-2.742;2023-04-03T16:00:19;26.90;43.90
33863;DHT22;20158;51.436;-2.742;2023-04-03T16:02:46;26.90;43.80
33863;DHT22;20158;51.436;-2.742;2023-04-03T16:05:13;27.10;43.50
33863;DHT22;20158;51.436;-2.742;2023-04-03T16:07:41;27.20;43.00
33863;DHT22;20158;51.436;-2.742;2023-04-03T16:10:08;27.40;42.50
33863;DHT22;20158;51.436;-2.742;2023-04-03T16:12:35;27.60;42.00
33863;DHT22;20158;51.436;-2.742;2023-04-03T16:15:02;27.70;41.90
33863;DHT22;20158;51.436;-2.742;2023-04-03T16:17:28;27.50;42.00
33863;DHT22;20158;51.436;-2.742;2023-04-03T16:19:55;27.30;42.20
33863;DHT22;20158;51.436;-2.742;2023-04-03T16:22:24;27.00;42.60
33863;DHT22;20158;51.436;-2.742;2023-04-03T16:24:51;26.70;43.00
33863;DHT22;20158;51.436;-2.742;2023-04-03T16:27:17;26.40;43.30
33863;DHT22;20158;51.436;-2.742;2023-04-03T16:29:43;26.20;43.60
33863;DHT22;20158;51.436;-2.742;2023-04-03T16:32:09;26.10;42.90
33863;DHT22;20158;51.436;-2.742;2023-04-03T16:34:35;25.80;42.10
33863;DHT22;20158;51.436;-2.742;2023-04-03T16:37:01;25.40;41.40
33863;DHT22;20158;51.436;-2.742;2023-04-03T16:39:27;25.10;41.10
33863;DHT22;20158;51.436;-2.742;2023-04-03T16:41:53;24.60;40.00
33863;DHT22;20158;51.436;-2.742;2023-04-03T16:44:19;24.20;39.60
33863;DHT22;20158;51.436;-2.742;2023-04-03T16:46:45;23.70;39.10
33863;DHT22;20158;51.436;-2.742;2023-04-03T16:49:11;23.20;38.80
33863;DHT22;20158;51.436;-2.742;2023-04-03T16:51:37;22.60;38.30
33863;DHT22;20158;51.436;-2.742;2023-04-03T16:54:03;22.10;38.10
33863;DHT22;20158;51.436;-2.742;2023-04-03T16:56:29;21.60;37.80
33863;DHT22;20158;51.436;-2.742;2023-04-03T16:58:55;21.20;37.60
33863;DHT22;20158;51.436;-2.742;2023-04-03T17:01:22;20.90;37.60
33863;DHT22;20158;51.436;-2.742;2023-04-03T17:03:48;20.60;37.60
33863;DHT22;20158;51.436;-2.742;2023-04-03T17:06:20;20.20;37.40
33863;DHT22;20158;51.436;-2.742;2023-04-03T17:08:48;19.90;37.40
33863;DHT22;20158;51.436;-2.742;2023-04-03T17:11:26;19.70;37.50
33863;DHT22;20158;51.436;-2.742;2023-04-03T17:13:53;19.50;37.50
33863;DHT22;20158;51.436;-2.742;2023-04-03T17:16:19;19.30;37.50
33863;DHT22;20158;51.436;-2.742;2023-04-03T17:18:45;19.10;37.40
33863;DHT22;20158;51.436;-2.742;2023-04-03T17:21:13;19.00;37.50
33863;DHT22;20158;51.436;-2.742;2023-04-03T17:23:41;18.80;37.20
33863;DHT22;20158;51.436;-2.742;2023-04-03T17:26:08;18.60;37.00
33863;DHT22;20158;51.436;-2.742;2023-04-03T17:28:34;18.50;37.10
33863;DHT22;20158;51.436;-2.742;2023-04-03T17:31:02;18.30;37.00
33863;DHT22;20158;51.436;-2.742;2023-04-03T17:33:29;18.20;37.10
33863;DHT22;20158;51.436;-2.742;2023-04-03T17:36:00;18.10;37.20
33863;DHT22;20158;51.436;-2.742;2023-04-03T17:38:28;17.90;37.20
33863;DHT22;20158;51.436;-2.742;2023-04-03T17:40:58;17.80;37.30
33863;DHT22;20158;51.436;-2.742;2023-04-03T17:43:25;17.60;37.10